Time;durP1;ratioP1;P1;durP2;ratioP2;P2;SDS_P1;SDS_P2;PMS_P1;PMS_P2;Temp;Humidity;BMP_temperature;BMP_pressure;BME280_temperature;BME280_humidity;BME280_pressure;Samples;Min_cycle;Max_cycle;Signal;HPM_P1;HPM_P2
2021/12/06 00:01:24;;;;;;;37.38;21.33;;;;;;;-1.41;88.60;99121.38;1656382;84;21064;-62
2021/12/06 00:03:57;;;;;;;37.05;21.02;;;;;;;-1.39;88.68;99127.88;1652570;84;21469;-64
2021/12/06 00:06:26;;;;;;;36.25;20.15;;;;;;;-1.38;88.65;99118.72;1673688;84;21026;-64
2021/12/06 00:08:52;;;;;;;34.92;20.27;;;;;;;-1.37;88.74;99124.40;1662961;84;21097;-61
2021/12/06 00:11:19;;;;;;;31.45;17.80;;;;;;;-1.36;88.87;99130.08;1674557;84;21152;-64
2021/12/06 00:13:47;;;;;;;28.70;17.80;;;;;;;-1.35;88.97;99131.73;1671766;84;21015;-66
2021/12/06 00:16:19;;;;;;;35.23;20.05;;;;;;;-1.32;89.13;99125.82;1650711;85;21060;-61
2021/12/06 00:18:46;;;;;;;32.48;17.82;;;;;;;-1.31;89.14;99122.03;1663897;85;21019;-62
2021/12/06 00:21:12;;;;;;;32.15;18.92;;;;;;;-1.32;89.09;99123.12;1674257;84;21012;-60
2021/12/06 00:23:40;;;;;;;30.85;17.57;;;;;;;-1.35;89.15;99125.77;1667369;84;21164;-62
2021/12/06 00:26:08;;;;;;;32.67;18.40;;;;;;;-1.35;89.29;99119.56;1657772;84;21030;-64
2021/12/06 00:28:36;;;;;;;28.30;17.27;;;;;;;-1.32;89.56;99118.23;1660142;84;21055;-64
2021/12/06 00:31:03;;;;;;;33.02;18.52;;;;;;;-1.28;89.65;99115.33;1668711;84;21052;-66
2021/12/06 00:33:29;;;;;;;34.05;17.75;;;;;;;-1.25;89.64;99118.88;1672147;84;21314;-65
2021/12/06 00:36:03;;;;;;;31.17;18.60;;;;;;;-1.24;89.66;99116.44;1664410;83;21094;-62
2021/12/06 00:38:25;;;;;;;29.87;16.25;;;;;;;-1.21;89.75;99120.55;1621413;85;21111;-65
2021/12/06 00:40:52;;;;;;;33.40;17.92;;;;;;;-1.19;89.76;99122.44;1647812;86;21043;-63
2021/12/06 00:43:18;;;;;;;30.35;16.10;;;;;;;-1.18;89.79;99123.57;1608087;87;21636;-62
2021/12/06 00:45:44;;;;;;;24.52;15.48;;;;;;;-1.18;89.67;99114.10;1676142;84;21043;-63
2021/12/06 00:48:11;;;;;;;28.27;18.10;;;;;;;-1.20;89.68;99112.18;1665183;84;21217;-65
2021/12/06 00:50:40;;;;;;;32.93;18.02;;;;;;;-1.24;89.57;99108.33;1643841;84;21084;-64
2021/12/06 00:53:07;;;;;;;31.97;18.55;;;;;;;-1.27;89.65;99108.31;1628677;84;21141;-63
2021/12/06 00:55:34;;;;;;;30.77;17.95;;;;;;;-1.28;89.77;99110.71;1627230;86;21076;-61
2021/12/06 00:58:02;;;;;;;32.58;18.95;;;;;;;-1.29;89.91;99106.39;1645618;84;21052;-64
2021/12/06 01:00:39;;;;;;;30.52;18.17;;;;;;;-1.31;90.05;99105.81;1647740;84;21771;-64
2021/12/06 01:03:10;;;;;;;34.27;18.45;;;;;;;-1.29;90.23;99103.69;1664165;84;21544;-63
2021/12/06 01:05:37;;;;;;;33.10;19.92;;;;;;;-1.27;90.31;99102.91;1641858;84;21048;-61
2021/12/06 01:08:04;;;;;;;35.15;19.02;;;;;;;-1.25;90.35;99093.19;1647707;84;21099;-63
2021/12/06 01:10:31;;;;;;;37.93;21.07;;;;;;;-1.24;90.49;99103.75;1672062;84;21086;-65
2021/12/06 01:12:57;;;;;;;29.80;18.77;;;;;;;-1.21;90.46;99098.91;1678444;84;21817;-63
2021/12/06 01:15:25;;;;;;;39.53;22.58;;;;;;;-1.23;90.52;99091.85;1670067;84;21055;-64
2021/12/06 01:17:52;;;;;;;34.75;20.62;;;;;;;-1.19;90.65;99095.39;1645348;85;21076;-65
2021/12/06 01:20:23;;;;;;;40.35;22.87;;;;;;;-1.18;90.61;99098.41;1672118;84;21081;-62
2021/12/06 01:22:55;;;;;;;40.00;23.52;;;;;;;-1.17;90.68;99094.62;1650084;84;21086;-62
2021/12/06 01:25:44;;;;;;;37.67;22.73;;;;;;;-1.19;90.66;99089.47;1642148;85;21118;-63
2021/12/06 01:29:04;;;;;;;38.67;22.48;;;;;;;-1.18;90.79;99087.59;1618429;86;21088;-65
2021/12/06 01:30:52;;;;;;;38.98;22.17;;;;;;;-1.18;90.83;99082.17;1601948;87;21024;-61
2021/12/06 01:41:19;;;;;;;38.17;22.82;;;;;;;-1.18;91.48;99069.48;1619887;87;21040;-62
2021/12/06 01:44:20;;;;;;;41.08;22.22;;;;;;;-1.16;91.62;99065.17;1672818;84;21059;-63
2021/12/06 01:47:01;;;;;;;35.20;21.05;;;;;;;-1.14;91.65;99058.42;1673286;84;21075;-62
2021/12/06 01:49:31;;;;;;;37.05;21.23;;;;;;;-1.11;91.77;99051.15;1614237;86;21082;-62
2021/12/06 01:52:02;;;;;;;33.10;20.05;;;;;;;-1.08;91.83;99055.25;1614723;87;21769;-62
2021/12/06 01:54:30;;;;;;;37.67;22.10;;;;;;;-1.04;92.00;99059.62;1629221;86;21499;-62
2021/12/06 01:56:57;;;;;;;38.25;21.85;;;;;;;-1.02;92.01;99056.11;1598722;88;21076;-64
2021/12/06 01:59:23;;;;;;;35.45;21.35;;;;;;;-1.00;92.00;99057.50;1598232;87;21065;-64
2021/12/06 02:01:52;;;;;;;37.10;21.23;;;;;;;-0.99;91.93;99062.38;1626699;86;21023;-62
2021/12/06 02:04:18;;;;;;;35.25;21.48;;;;;;;-0.97;91.93;99065.63;1642279;84;21236;-65
2021/12/06 02:06:45;;;;;;;35.40;21.37;;;;;;;-0.94;91.98;99072.44;1617309;85;21553;-61
2021/12/06 02:09:14;;;;;;;37.78;22.60;;;;;;;-0.91;92.10;99066.51;1641672;86;21025;-62
2021/12/06 02:11:41;;;;;;;39.53;22.17;;;;;;;-0.89;92.07;99067.08;1638601;86;21099;-62
2021/12/06 02:14:24;;;;;;;33.95;20.43;;;;;;;-0.86;92.10;99070.09;1650817;84;21091;-61
2021/12/06 02:16:55;;;;;;;36.73;21.05;;;;;;;-0.83;92.15;99061.98;1630149;86;21167;-64
2021/12/06 02:19:09;;;;;;;35.85;20.77;;;;;;;-0.81;92.08;99059.84;1616714;87;21059;-62
2021/12/06 02:21:41;;;;;;;34.70;21.30;;;;;;;-0.78;92.11;99058.51;1644806;84;21060;-62
2021/12/06 02:24:09;;;;;;;32.85;20.32;;;;;;;-0.77;92.09;99053.39;1660916;84;21039;-62
2021/12/06 02:26:40;;;;;;;34.73;21.42;;;;;;;-0.77;92.09;99063.66;1607167;86;21080;-63
2021/12/06 02:29:07;;;;;;;32.70;20.23;;;;;;;-0.77;92.18;99056.90;1672992;84;21138;-63
2021/12/06 02:31:35;;;;;;;34.20;21.50;;;;;;;-0.76;92.17;99051.78;1656906;84;21055;-64
2021/12/06 02:34:01;;;;;;;30.72;19.15;;;;;;;-0.74;92.25;99045.59;1644100;84;21067;-61
2021/12/06 02:36:28;;;;;;;34.10;20.17;;;;;;;-0.69;92.27;99053.45;1657386;84;21059;-63
2021/12/06 02:38:55;;;;;;;34.40;21.90;;;;;;;-0.69;92.24;99047.52;1651782;84;21079;-64
2021/12/06 02:41:21;;;;;;;31.07;19.67;;;;;;;-0.68;92.26;99053.20;1624748;86;21228;-63
2021/12/06 02:43:48;;;;;;;30.62;19.05;;;;;;;-0.66;92.19;99049.70;1620401;87;21165;-62
2021/12/06 02:46:15;;;;;;;29.37;18.90;;;;;;;-0.65;92.15;99053.23;1636635;86;21063;-64
2021/12/06 02:48:42;;;;;;;29.27;18.55;;;;;;;-0.65;92.19;99051.33;1664383;84;21515;-62
2021/12/06 02:51:09;;;;;;;29.12;18.45;;;;;;;-0.64;92.17;99053.50;1640717;84;21177;-62
2021/12/06 02:53:36;;;;;;;30.25;18.62;;;;;;;-0.63;92.26;99051.06;1645928;84;21071;-62
2021/12/06 02:56:16;;;;;;;27.85;17.98;;;;;;;-0.61;92.31;99057.05;1620541;87;21564;-63
2021/12/06 03:01:17;;;;;;;28.80;17.77;;;;;;;-0.64;92.35;99048.91;1676320;84;21562;-63
2021/12/06 03:03:43;;;;;;;24.52;16.40;;;;;;;-0.63;92.35;99054.59;1613359;86;21111;-63
2021/12/06 03:06:13;;;;;;;23.60;16.27;;;;;;;-0.63;92.38;99048.36;1665367;84;22040;-62
2021/12/06 03:08:47;;;;;;;26.80;16.05;;;;;;;-0.63;92.41;99053.77;1665906;84;21003;-62
2021/12/06 03:11:26;;;;;;;22.90;14.10;;;;;;;-0.63;92.48;99058.66;1651879;84;21829;-62
2021/12/06 03:13:55;;;;;;;20.52;13.70;;;;;;;-0.61;92.53;99059.75;1650917;84;21039;-62
2021/12/06 03:16:21;;;;;;;26.40;15.50;;;;;;;-0.58;92.58;99057.08;1643088;84;21090;-62
2021/12/06 03:18:50;;;;;;;24.27;14.23;;;;;;;-0.58;92.55;99060.58;1648082;85;21823;-65
2021/12/06 03:21:16;;;;;;;21.95;13.58;;;;;;;-0.58;92.56;99060.58;1669930;84;21020;-64
2021/12/06 03:23:43;;;;;;;23.83;14.85;;;;;;;-0.57;92.62;99062.23;1666226;84;21028;-65
2021/12/06 03:26:09;;;;;;;23.12;14.90;;;;;;;-0.55;92.73;99065.52;1666298;84;21096;-64
2021/12/06 03:28:39;;;;;;;22.13;13.65;;;;;;;-0.53;92.85;99066.05;1635696;85;21084;-65
2021/12/06 03:31:06;;;;;;;23.05;14.30;;;;;;;-0.48;92.95;99073.42;1648141;85;21125;-63
2021/12/06 03:33:36;;;;;;;23.67;13.20;;;;;;;-0.45;92.95;99066.13;1676024;84;21024;-62
2021/12/06 03:36:05;;;;;;;23.52;15.48;;;;;;;-0.44;92.82;99073.70;1640389;86;21015;-64
2021/12/06 03:38:35;;;;;;;24.32;15.08;;;;;;;-0.45;92.70;99073.42;1656395;84;21107;-62
2021/12/06 03:41:02;;;;;;;26.35;15.53;;;;;;;-0.47;92.68;99079.10;1641211;84;21098;-64
2021/12/06 03:43:29;;;;;;;24.95;15.10;;;;;;;-0.50;92.66;99077.73;1673763;84;21515;-66
2021/12/06 03:45:55;;;;;;;26.80;16.32;;;;;;;-0.47;92.83;99080.98;1661402;84;21115;-62
2021/12/06 03:48:22;;;;;;;24.90;15.70;;;;;;;-0.47;92.91;99080.45;1663408;84;21055;-62
2021/12/06 03:50:50;;;;;;;24.50;14.95;;;;;;;-0.46;92.82;99077.22;1671477;84;21068;-62
2021/12/06 03:53:17;;;;;;;25.30;15.38;;;;;;;-0.48;92.89;99076.13;1678540;84;21052;-64
2021/12/06 03:55:45;;;;;;;29.75;17.77;;;;;;;-0.45;93.00;99077.48;1628363;86;21112;-63
2021/12/06 03:58:12;;;;;;;27.45;17.37;;;;;;;-0.42;93.15;99070.20;1629566;85;21111;-65
2021/12/06 04:00:39;;;;;;;30.25;18.70;;;;;;;-0.40;93.25;99070.23;1646914;84;21051;-63
2021/12/06 04:03:06;;;;;;;27.55;17.98;;;;;;;-0.37;93.29;99064.30;1641490;84;21043;-64
2021/12/06 04:05:33;;;;;;;31.20;17.57;;;;;;;-0.33;93.31;99061.06;1660200;84;21061;-64
2021/12/06 04:08:00;;;;;;;33.20;18.40;;;;;;;-0.31;93.29;99065.70;1668279;84;21539;-62
2021/12/06 04:10:28;;;;;;;32.38;19.20;;;;;;;-0.33;93.12;99060.54;1682076;84;21035;-64
2021/12/06 04:12:59;;;;;;;33.05;19.62;;;;;;;-0.35;92.92;99068.63;1637396;84;21075;-63
2021/12/06 04:15:29;;;;;;;32.42;19.10;;;;;;;-0.38;92.92;99064.56;1669047;84;21509;-62
2021/12/06 04:17:58;;;;;;;32.13;19.25;;;;;;;-0.40;92.97;99061.28;1639812;84;21123;-65
2021/12/06 04:20:26;;;;;;;34.98;19.92;;;;;;;-0.39;93.04;99064.27;1660909;84;21122;-65
2021/12/06 04:22:53;;;;;;;32.73;18.90;;;;;;;-0.39;93.04;99060.20;1653816;85;21059;-62
2021/12/06 04:25:19;;;;;;;31.55;18.82;;;;;;;-0.39;93.04;99066.97;1672057;83;21183;-64
2021/12/06 04:27:55;;;;;;;36.55;20.97;;;;;;;-0.39;93.05;99073.73;1647908;85;21123;-65
2021/12/06 04:30:24;;;;;;;33.18;19.65;;;;;;;-0.40;93.08;99070.23;1620302;87;21099;-64
2021/12/06 04:32:53;;;;;;;34.08;19.00;;;;;;;-0.38;93.13;99070.80;1614240;86;21892;-64
2021/12/06 04:35:20;;;;;;;35.98;20.95;;;;;;;-0.36;93.11;99059.70;1678487;84;21083;-62
2021/12/06 04:37:48;;;;;;;30.20;18.57;;;;;;;-0.35;93.18;99061.33;1671168;84;21213;-66
2021/12/06 04:40:15;;;;;;;30.52;17.37;;;;;;;-0.35;93.10;99057.27;1627068;84;21105;-63
2021/12/06 04:42:41;;;;;;;33.20;18.92;;;;;;;-0.34;93.15;99064.30;1678161;83;21123;-63
2021/12/06 04:45:10;;;;;;;32.38;18.45;;;;;;;-0.34;93.11;99062.95;1675243;84;21141;-64
2021/12/06 04:47:36;;;;;;;32.78;19.40;;;;;;;-0.35;93.03;99067.27;1637745;86;21101;-62
2021/12/06 04:50:06;;;;;;;33.28;19.77;;;;;;;-0.36;92.97;99070.55;1607919;86;21126;-65
2021/12/06 04:52:33;;;;;;;34.95;19.62;;;;;;;-0.37;92.83;99077.02;1647285;84;21118;-65
2021/12/06 04:55:00;;;;;;;29.90;17.35;;;;;;;-0.39;92.80;99073.73;1652183;84;21047;-62
2021/12/06 04:57:35;;;;;;;26.90;16.97;;;;;;;-0.41;92.80;99070.50;1679240;84;21480;-63
2021/12/06 05:00:16;;;;;;;30.55;18.10;;;;;;;-0.43;92.80;99070.75;1662444;84;21647;-61
2021/12/06 05:02:44;;;;;;;31.02;17.67;;;;;;;-0.45;92.82;99075.61;1664553;85;21547;-64
2021/12/06 05:05:40;;;;;;;30.68;17.57;;;;;;;-0.45;92.91;99076.96;1676268;84;21186;-64
2021/12/06 05:08:24;;;;;;;29.02;16.90;;;;;;;-0.44;92.99;99081.29;1669355;84;21063;-63
2021/12/06 05:10:52;;;;;;;30.52;18.12;;;;;;;-0.43;93.00;99088.35;1634930;84;23353;-64
2021/12/06 05:13:20;;;;;;;31.60;17.98;;;;;;;-0.43;92.97;99084.82;1617325;86;21071;-62
2021/12/06 05:15:47;;;;;;;34.08;18.37;;;;;;;-0.43;93.01;99082.11;1633373;86;21019;-63
2021/12/06 05:18:13;;;;;;;33.95;18.67;;;;;;;-0.45;92.83;99074.78;1642901;86;21517;-62
2021/12/06 05:20:40;;;;;;;37.53;19.70;;;;;;;-0.48;92.88;99073.95;1634150;86;21117;-62
2021/12/06 05:23:07;;;;;;;37.05;19.07;;;;;;;-0.47;92.85;99078.27;1631555;86;22342;-65
2021/12/06 05:25:34;;;;;;;32.75;18.55;;;;;;;-0.47;92.93;99079.63;1640742;86;21505;-63
2021/12/06 05:28:02;;;;;;;35.13;20.15;;;;;;;-0.47;92.90;99083.69;1674988;84;21005;-63
2021/12/06 05:30:29;;;;;;;33.80;18.32;;;;;;;-0.46;93.04;99080.72;1665696;84;21051;-63
2021/12/06 05:33:01;;;;;;;36.73;20.02;;;;;;;-0.44;93.03;99084.52;1648368;84;21063;-63
2021/12/06 05:35:24;;;;;;;38.50;20.30;;;;;;;-0.46;93.05;99087.48;1671212;84;21221;-65
2021/12/06 05:37:54;;;;;;;37.30;20.75;;;;;;;-0.48;93.14;99089.66;1647010;84;21127;-65
2021/12/06 05:40:23;;;;;;;39.13;20.48;;;;;;;-0.48;93.21;99089.66;1648424;85;21060;-65
2021/12/06 05:42:51;;;;;;;36.75;20.35;;;;;;;-0.46;93.24;99085.34;1670238;84;21560;-64
2021/12/06 05:45:19;;;;;;;39.55;20.02;;;;;;;-0.45;93.24;99084.25;1665292;84;21024;-61
2021/12/06 05:47:46;;;;;;;41.05;21.07;;;;;;;-0.45;93.17;99084.25;1678951;84;21139;-63
2021/12/06 05:50:13;;;;;;;38.75;20.37;;;;;;;-0.45;93.13;99093.73;1647347;84;21152;-63
2021/12/06 05:52:39;;;;;;;43.08;21.62;;;;;;;-0.44;93.21;99089.94;1633497;84;21043;-61
2021/12/06 05:55:07;;;;;;;44.88;22.80;;;;;;;-0.44;93.29;99082.64;1659679;84;21222;-62
2021/12/06 05:57:33;;;;;;;42.50;22.07;;;;;;;-0.41;93.33;99088.09;1671199;84;21024;-63
2021/12/06 06:00:04;;;;;;;43.73;21.95;;;;;;;-0.39;93.31;99089.45;1669042;84;21067;-61
2021/12/06 06:02:33;;;;;;;39.63;21.50;;;;;;;-0.38;93.35;99089.75;1677553;84;21035;-65
2021/12/06 06:05:00;;;;;;;43.13;21.70;;;;;;;-0.36;93.41;99094.91;1667351;84;21559;-65
2021/12/06 06:07:26;;;;;;;41.33;21.45;;;;;;;-0.34;93.45;99101.42;1673024;84;21084;-62
2021/12/06 06:09:54;;;;;;;36.60;20.65;;;;;;;-0.35;93.41;99100.59;1658891;84;21135;-61
2021/12/06 06:12:20;;;;;;;48.52;24.70;;;;;;;-0.34;93.41;99100.86;1654488;85;21777;-64
2021/12/06 06:14:48;;;;;;;40.63;22.82;;;;;;;-0.34;93.39;99097.36;1644494;84;21096;-63
2021/12/06 06:17:18;;;;;;;43.55;21.62;;;;;;;-0.32;93.36;99099.25;1670193;84;21181;-63
2021/12/06 06:19:48;;;;;;;38.10;21.40;;;;;;;-0.33;93.38;99103.04;1671626;85;21579;-63
2021/12/06 06:22:14;;;;;;;44.27;23.73;;;;;;;-0.34;93.39;99096.80;1672786;84;21591;-62
2021/12/06 06:24:40;;;;;;;47.20;23.47;;;;;;;-0.31;93.54;99101.73;1640747;84;21262;-62
2021/12/06 06:27:07;;;;;;;44.25;22.27;;;;;;;-0.29;93.61;99107.67;1637596;84;21616;-62
2021/12/06 06:29:35;;;;;;;43.35;22.87;;;;;;;-0.27;93.68;99106.89;1627558;84;21023;-64
2021/12/06 06:32:05;;;;;;;47.00;23.27;;;;;;;-0.25;93.71;99111.52;1637707;84;21019;-62
2021/12/06 06:34:33;;;;;;;40.40;22.05;;;;;;;-0.21;93.81;99108.28;1654544;84;21089;-63
2021/12/06 06:37:00;;;;;;;44.63;23.65;;;;;;;-0.19;93.75;99106.97;1619274;87;21163;-63
2021/12/06 06:39:27;;;;;;;43.10;21.90;;;;;;;-0.18;93.75;99102.34;1632777;86;21100;-64
2021/12/06 06:41:55;;;;;;;43.17;23.45;;;;;;;-0.16;93.80;99105.62;1635412;84;21120;-64
2021/12/06 06:44:21;;;;;;;49.93;24.32;;;;;;;-0.16;93.69;99105.62;1658865;84;21024;-64
2021/12/06 06:46:48;;;;;;;48.25;25.62;;;;;;;-0.19;93.59;99106.97;1646757;84;21536;-61
2021/12/06 06:49:15;;;;;;;48.25;24.67;;;;;;;-0.16;93.68;99111.04;1654430;84;21205;-62
2021/12/06 06:51:41;;;;;;;46.58;23.52;;;;;;;-0.14;93.75;99112.40;1607543;88;21491;-64
2021/12/06 06:54:08;;;;;;;49.73;25.52;;;;;;;-0.12;93.65;99118.94;1644252;84;21083;-63
2021/12/06 06:56:34;;;;;;;47.58;24.85;;;;;;;-0.14;93.51;99126.50;1629848;86;21560;-63
2021/12/06 06:59:01;;;;;;;49.90;24.95;;;;;;;-0.14;93.62;99123.79;1615437;87;21549;-61
2021/12/06 07:01:28;;;;;;;47.20;23.30;;;;;;;-0.11;93.78;99124.63;1614109;87;21309;-64
2021/12/06 07:03:54;;;;;;;44.25;23.15;;;;;;;-0.08;93.91;99124.10;1659601;85;21008;-61
2021/12/06 07:06:25;;;;;;;45.83;23.80;;;;;;;-0.03;94.01;99128.20;1674782;84;21020;-61
2021/12/06 07:08:54;;;;;;;42.15;23.25;;;;;;;0.01;94.07;99123.63;1634631;84;21118;-62
2021/12/06 07:11:23;;;;;;;49.15;25.17;;;;;;;0.04;94.07;99125.80;1665373;84;21032;-62
2021/12/06 07:13:50;;;;;;;49.35;25.65;;;;;;;0.08;94.11;99124.22;1668310;84;21136;-63
2021/12/06 07:16:17;;;;;;;53.68;26.55;;;;;;;0.10;94.07;99122.08;1650018;84;21028;-63
2021/12/06 07:18:44;;;;;;;50.52;25.68;;;;;;;0.10;93.97;99118.81;1628495;86;21063;-64
2021/12/06 07:21:12;;;;;;;47.45;24.50;;;;;;;0.08;93.79;99114.21;1617204;86;21028;-64
2021/12/06 07:23:41;;;;;;;54.55;26.87;;;;;;;0.10;93.89;99115.30;1627129;86;21585;-66
2021/12/06 07:26:09;;;;;;;55.55;27.73;;;;;;;0.14;93.94;99110.19;1589518;87;21588;-64
2021/12/06 07:28:37;;;;;;;51.53;24.37;;;;;;;0.17;93.94;99112.37;1651431;84;21071;-65
2021/12/06 07:31:06;;;;;;;48.00;25.75;;;;;;;0.19;93.96;99116.44;1677985;84;21003;-65
2021/12/06 07:33:35;;;;;;;57.53;26.70;;;;;;;0.25;94.08;99121.36;1663452;84;21063;-64
2021/12/06 07:36:02;;;;;;;50.55;25.80;;;;;;;0.29;94.09;99125.16;1653051;84;21043;-64
2021/12/06 07:38:30;;;;;;;52.67;26.05;;;;;;;0.31;94.06;99123.55;1661997;85;21493;-63
2021/12/06 07:40:57;;;;;;;53.87;25.92;;;;;;;0.35;94.16;99127.38;1672548;84;21056;-65
2021/12/06 07:43:23;;;;;;;47.65;24.70;;;;;;;0.40;94.08;99123.87;1658011;84;21170;-65
2021/12/06 07:45:50;;;;;;;48.78;24.15;;;;;;;0.43;94.02;99135.55;1675829;84;21958;-66
2021/12/06 07:48:16;;;;;;;52.73;26.33;;;;;;;0.42;93.88;99134.75;1653538;83;21099;-63
2021/12/06 07:50:43;;;;;;;54.23;26.68;;;;;;;0.43;93.91;99143.16;1636308;85;21103;-63
2021/12/06 07:53:10;;;;;;;54.35;25.80;;;;;;;0.44;93.80;99148.05;1626486;86;21063;-64
2021/12/06 07:55:36;;;;;;;55.35;27.80;;;;;;;0.45;93.81;99141.00;1639803;85;21107;-65
2021/12/06 07:58:05;;;;;;;59.53;27.75;;;;;;;0.46;93.87;99146.69;1646417;85;21634;-63
2021/12/06 08:00:40;;;;;;;54.03;26.37;;;;;;;0.52;93.89;99147.55;1622839;85;21666;-64
2021/12/06 08:03:08;;;;;;;54.20;26.75;;;;;;;0.56;93.94;99144.58;1653042;84;21639;-63
2021/12/06 08:05:37;;;;;;;59.10;29.15;;;;;;;0.57;93.84;99148.94;1665861;84;21048;-64
2021/12/06 08:08:14;;;;;;;62.67;29.82;;;;;;;0.53;93.55;99150.53;1658358;84;21111;-65
2021/12/06 08:10:44;;;;;;;55.40;28.23;;;;;;;0.50;93.55;99157.83;1664032;84;21059;-63
2021/12/06 08:13:13;;;;;;;59.93;28.35;;;;;;;0.48;93.35;99166.77;1661423;83;21173;-64
2021/12/06 08:15:39;;;;;;;58.02;28.85;;;;;;;0.42;93.36;99161.04;1651878;84;21145;-64
2021/12/06 08:18:06;;;;;;;63.90;30.25;;;;;;;0.39;93.26;99163.75;1594991;88;21632;-64
2021/12/06 08:20:33;;;;;;;60.25;29.67;;;;;;;0.34;93.45;99163.16;1675760;84;21031;-63
2021/12/06 08:22:59;;;;;;;60.80;29.60;;;;;;;0.35;93.54;99160.73;1661672;83;21000;-64
2021/12/06 08:25:26;;;;;;;70.70;31.70;;;;;;;0.31;93.45;99164.20;1659500;83;21059;-64
2021/12/06 08:27:53;;;;;;;63.78;31.23;;;;;;;0.31;93.65;99156.91;1647029;84;21168;-63
2021/12/06 08:30:22;;;;;;;61.75;29.75;;;;;;;0.35;93.82;99155.84;1646366;84;21032;-62
2021/12/06 08:32:53;;;;;;;58.92;30.05;;;;;;;0.40;94.00;99144.21;1666031;84;21117;-64
2021/12/06 08:35:19;;;;;;;62.17;27.82;;;;;;;0.45;94.13;99147.78;1646383;85;21126;-64
2021/12/06 08:37:47;;;;;;;64.60;30.25;;;;;;;0.50;94.17;99141.56;1651014;85;21174;-63
2021/12/06 08:40:16;;;;;;;62.67;29.48;;;;;;;0.55;94.11;99144.31;1637964;84;21157;-63
2021/12/06 08:42:43;;;;;;;59.18;29.50;;;;;;;0.57;94.14;99139.98;1647478;84;20996;-63
2021/12/06 08:45:10;;;;;;;59.55;28.07;;;;;;;0.62;94.18;99135.11;1643225;84;21579;-64
2021/12/06 08:47:37;;;;;;;57.95;28.30;;;;;;;0.65;94.19;99129.19;1645681;84;21046;-63
2021/12/06 08:50:07;;;;;;;62.23;27.60;;;;;;;0.68;94.18;99127.30;1646185;85;21055;-64
2021/12/06 08:52:33;;;;;;;56.95;28.25;;;;;;;0.71;94.18;99121.34;1661389;84;21235;-62
2021/12/06 08:55:00;;;;;;;56.35;29.27;;;;;;;0.72;94.07;99125.14;1673456;84;21512;-63
2021/12/06 08:57:27;;;;;;;60.92;29.65;;;;;;;0.72;94.00;99117.54;1660909;84;21087;-63
2021/12/06 08:59:53;;;;;;;62.48;29.75;;;;;;;0.73;94.06;99113.20;1660015;84;21150;-63
2021/12/06 09:02:21;;;;;;;58.23;29.40;;;;;;;0.77;94.08;99108.06;1648113;84;21178;-62
2021/12/06 09:04:48;;;;;;;59.77;28.87;;;;;;;0.79;94.06;99103.20;1664827;84;21110;-64
2021/12/06 09:07:14;;;;;;;57.48;29.10;;;;;;;0.81;94.04;99094.27;1668340;84;21542;-64
2021/12/06 09:09:49;;;;;;;54.08;27.80;;;;;;;0.84;93.96;99093.73;1632010;86;21104;-65
2021/12/06 09:12:20;;;;;;;54.23;26.73;;;;;;;0.87;94.01;99092.93;1669168;84;21080;-65
2021/12/06 09:14:47;;;;;;;62.85;29.50;;;;;;;0.92;94.08;99092.38;1670029;84;21115;-64
2021/12/06 09:17:14;;;;;;;62.95;29.98;;;;;;;0.97;94.03;99085.63;1641493;84;21883;-62
2021/12/06 09:19:42;;;;;;;57.13;28.60;;;;;;;1.00;93.98;99087.00;1658828;84;21113;-64
2021/12/06 09:22:08;;;;;;;59.00;29.42;;;;;;;1.04;93.97;99084.02;1670508;84;21111;-64
2021/12/06 09:24:34;;;;;;;60.98;30.17;;;;;;;1.08;93.83;99074.27;1672341;84;20992;-63
2021/12/06 09:27:01;;;;;;;53.45;28.30;;;;;;;1.10;93.72;99071.28;1648886;84;21071;-63
2021/12/06 09:29:28;;;;;;;55.48;27.35;;;;;;;1.12;93.64;99070.48;1665305;84;21091;-64
2021/12/06 09:31:55;;;;;;;52.78;27.35;;;;;;;1.12;93.53;99066.94;1640982;86;21489;-64
2021/12/06 09:34:21;;;;;;;57.30;28.42;;;;;;;1.13;93.46;99066.67;1656929;84;21100;-64
2021/12/06 09:36:48;;;;;;;58.00;28.57;;;;;;;1.13;93.23;99064.48;1641266;86;21069;-64
2021/12/06 09:39:15;;;;;;;67.37;32.58;;;;;;;1.10;93.04;99059.06;1612962;86;21124;-64
2021/12/06 09:41:44;;;;;;;69.37;33.35;;;;;;;1.11;93.04;99057.17;1645889;84;21080;-63
2021/12/06 09:44:10;;;;;;;67.55;31.40;;;;;;;1.10;93.04;99059.06;1645783;84;21186;-64
2021/12/06 09:46:38;;;;;;;65.85;30.50;;;;;;;1.12;93.06;99058.27;1665170;84;21115;-62
2021/12/06 09:49:15;;;;;;;69.75;33.78;;;;;;;1.14;92.98;99060.70;1640189;84;21076;-65
2021/12/06 09:51:50;;;;;;;69.62;31.15;;;;;;;1.14;92.91;99056.11;1639210;84;21543;-64
2021/12/06 09:54:13;;;;;;;61.73;32.20;;;;;;;1.13;92.78;99053.09;1649084;86;22286;-63
2021/12/06 09:56:42;;;;;;;61.10;29.77;;;;;;;1.12;92.77;99053.37;1643165;86;21219;-63
2021/12/06 09:59:12;;;;;;;66.28;32.40;;;;;;;1.08;92.66;99049.84;1646652;86;21085;-65
2021/12/06 10:01:44;;;;;;;59.15;29.70;;;;;;;1.06;92.68;99040.32;1627548;86;21069;-64
2021/12/06 10:04:14;;;;;;;57.08;29.15;;;;;;;1.07;92.70;99036.54;1671459;84;21048;-64
2021/12/06 10:06:40;;;;;;;65.70;29.95;;;;;;;1.08;92.71;99039.52;1635297;84;21067;-64
2021/12/06 10:09:09;;;;;;;62.30;29.65;;;;;;;1.05;92.67;99033.27;1633775;86;21657;-64
2021/12/06 10:11:36;;;;;;;62.08;29.40;;;;;;;1.05;92.63;99031.91;1637096;85;21071;-63
2021/12/06 10:14:03;;;;;;;66.42;31.42;;;;;;;1.05;92.62;99026.48;1669930;84;21117;-65
2021/12/06 10:16:29;;;;;;;65.30;29.42;;;;;;;1.05;92.69;99030.56;1655604;84;21051;-64
2021/12/06 10:18:56;;;;;;;57.60;29.55;;;;;;;1.07;92.69;99036.54;1638121;85;22379;-64
2021/12/06 10:21:27;;;;;;;60.67;29.95;;;;;;;1.08;92.71;99036.80;1631671;84;21093;-64
2021/12/06 10:23:51;;;;;;;60.85;30.05;;;;;;;1.10;92.76;99030.57;1668776;84;21119;-62
2021/12/06 10:26:22;;;;;;;63.60;31.73;;;;;;;1.12;92.75;99025.70;1669692;84;21052;-63
2021/12/06 10:28:49;;;;;;;62.48;31.50;;;;;;;1.14;92.71;99033.03;1634387;85;21020;-63
2021/12/06 10:31:16;;;;;;;69.92;30.40;;;;;;;1.18;92.73;99022.42;1624520;86;21981;-64
2021/12/06 10:33:46;;;;;;;66.92;32.40;;;;;;;1.22;92.77;99019.45;1650067;84;21057;-63
2021/12/06 10:36:15;;;;;;;59.35;29.65;;;;;;;1.24;92.73;99017.30;1666541;84;21075;-64
2021/12/06 10:38:47;;;;;;;54.50;28.00;;;;;;;1.28;92.73;99014.86;1663101;84;21808;-62
2021/12/06 10:41:17;;;;;;;56.53;27.67;;;;;;;1.29;92.54;99005.62;1670390;83;21158;-62
2021/12/06 10:44:11;;;;;;;56.90;28.98;;;;;;;1.29;92.51;99008.33;1661916;84;21786;-63
2021/12/06 10:46:44;;;;;;;62.95;32.13;;;;;;;1.29;92.50;99005.62;1664433;84;21547;-64
2021/12/06 10:49:14;;;;;;;68.17;30.97;;;;;;;1.27;92.31;99007.78;1661301;84;21096;-63
2021/12/06 10:51:41;;;;;;;67.05;29.23;;;;;;;1.24;92.22;99008.33;1639530;84;21110;-62
2021/12/06 10:54:33;;;;;;;66.40;29.18;;;;;;;1.20;92.18;99010.23;1652935;84;21060;-65
2021/12/06 10:56:52;;;;;;;57.43;28.07;;;;;;;1.19;92.20;99021.36;1665426;84;20985;-62
2021/12/06 10:59:29;;;;;;;51.48;26.65;;;;;;;1.15;92.02;99021.61;1627409;85;21003;-62
2021/12/06 11:01:59;;;;;;;51.33;25.08;;;;;;;1.08;91.89;99027.30;1645644;84;21546;-62
2021/12/06 11:04:28;;;;;;;52.80;25.27;;;;;;;1.02;92.01;99021.60;1636736;85;21028;-62
2021/12/06 11:07:04;;;;;;;50.10;25.72;;;;;;;0.99;92.20;99020.23;1583839;87;21090;-63
2021/12/06 11:09:28;;;;;;;50.15;25.60;;;;;;;1.00;92.37;99021.05;1590050;88;21124;-62
2021/12/06 11:12:01;;;;;;;44.95;23.30;;;;;;;0.97;92.35;99022.42;1589536;88;21085;-64
2021/12/06 11:14:35;;;;;;;51.25;24.23;;;;;;;0.93;92.44;99017.23;1606166;87;21162;-64
2021/12/06 11:17:10;;;;;;;52.70;26.82;;;;;;;0.90;92.38;99018.60;1603093;88;21110;-63
2021/12/06 11:19:37;;;;;;;42.38;23.47;;;;;;;0.87;92.44;99012.33;1600460;87;21598;-64
2021/12/06 11:22:12;;;;;;;64.92;25.68;;;;;;;0.84;92.47;99011.52;1604147;88;21630;-62
2021/12/06 11:24:41;;;;;;;44.85;24.10;;;;;;;0.81;92.54;99003.39;1657251;84;21047;-63
2021/12/06 11:27:14;;;;;;;50.78;25.30;;;;;;;0.83;92.80;99003.12;1650995;84;21612;-62
2021/12/06 11:29:54;;;;;;;45.15;23.00;;;;;;;0.84;92.88;99008.80;1637828;85;21280;-62
2021/12/06 11:32:33;;;;;;;48.87;24.80;;;;;;;0.86;93.02;99002.58;1668110;84;21583;-62
2021/12/06 11:35:06;;;;;;;46.45;22.85;;;;;;;0.88;93.10;99003.66;1656988;84;21612;-62
2021/12/06 11:37:43;;;;;;;49.70;24.87;;;;;;;0.90;93.15;99001.50;1648066;84;21072;-62